sensor_id;sensor_type;location;lat;lon;timestamp;P1;durP1;ratioP1;P2;durP2;ratioP2
35667;SDS011;22158;59.280;17.806;2023-04-24T05:02:05;10.98;;;4.72;;
35667;SDS011;22158;59.280;17.806;2023-04-24T05:04:31;14.07;;;5.53;;
35667;SDS011;22158;59.280;17.806;2023-04-24T05:06:56;13.85;;;5.03;;
35667;SDS011;22158;59.280;17.806;2023-04-24T05:09:22;11.90;;;5.18;;
35667;SDS011;22158;59.280;17.806;2023-04-24T05:11:47;9.82;;;4.05;;
35667;SDS011;22158;59.280;17.806;2023-04-24T05:14:13;14.82;;;4.57;;
35667;SDS011;22158;59.280;17.806;2023-04-24T05:16:39;14.23;;;4.72;;
35667;SDS011;22158;59.280;17.806;2023-04-24T05:19:05;14.27;;;4.53;;
35667;SDS011;22158;59.280;17.806;2023-04-24T05:21:31;15.85;;;4.90;;
35667;SDS011;22158;59.280;17.806;2023-04-24T05:23:56;14.15;;;4.65;;
35667;SDS011;22158;59.280;17.806;2023-04-24T05:26:22;14.32;;;5.13;;
35667;SDS011;22158;59.280;17.806;2023-04-24T05:28:48;16.95;;;6.43;;
35667;SDS011;22158;59.280;17.806;2023-04-24T05:31:13;10.98;;;5.30;;
35667;SDS011;22158;59.280;17.806;2023-04-24T05:33:39;13.05;;;5.13;;
35667;SDS011;22158;59.280;17.806;2023-04-24T05:36:05;12.80;;;5.22;;
35667;SDS011;22158;59.280;17.806;2023-04-24T05:38:31;11.63;;;5.90;;
35667;SDS011;22158;59.280;17.806;2023-04-24T05:40:57;14.38;;;5.28;;
35667;SDS011;22158;59.280;17.806;2023-04-24T05:43:22;12.65;;;5.72;;
35667;SDS011;22158;59.280;17.806;2023-04-24T05:45:48;9.75;;;4.55;;
35667;SDS011;22158;59.280;17.806;2023-04-24T05:48:14;14.75;;;5.40;;
35667;SDS011;22158;59.280;17.806;2023-04-24T05:50:39;12.68;;;5.80;;
35667;SDS011;22158;59.280;17.806;2023-04-24T05:53:05;10.52;;;4.20;;
35667;SDS011;22158;59.280;17.806;2023-04-24T05:55:32;13.98;;;5.82;;
35667;SDS011;22158;59.280;17.806;2023-04-24T05:57:58;8.52;;;4.85;;
35667;SDS011;22158;59.280;17.806;2023-04-24T06:00:24;11.38;;;5.35;;
35667;SDS011;22158;59.280;17.806;2023-04-24T06:02:50;14.20;;;4.95;;
35667;SDS011;22158;59.280;17.806;2023-04-24T06:05:16;15.07;;;5.95;;
35667;SDS011;22158;59.280;17.806;2023-04-24T06:07:42;10.80;;;5.50;;
35667;SDS011;22158;59.280;17.806;2023-04-24T06:10:08;12.35;;;5.82;;
35667;SDS011;22158;59.280;17.806;2023-04-24T06:12:34;9.65;;;5.03;;
35667;SDS011;22158;59.280;17.806;2023-04-24T06:15:00;10.43;;;5.57;;
35667;SDS011;22158;59.280;17.806;2023-04-24T06:17:26;11.13;;;5.18;;
35667;SDS011;22158;59.280;17.806;2023-04-24T06:19:51;7.13;;;4.07;;
35667;SDS011;22158;59.280;17.806;2023-04-24T06:22:17;8.50;;;4.25;;
35667;SDS011;22158;59.280;17.806;2023-04-24T06:24:42;9.23;;;4.30;;
35667;SDS011;22158;59.280;17.806;2023-04-24T06:27:08;10.00;;;4.95;;
35667;SDS011;22158;59.280;17.806;2023-04-24T06:29:33;10.90;;;4.82;;
35667;SDS011;22158;59.280;17.806;2023-04-24T06:31:59;9.30;;;4.57;;
35667;SDS011;22158;59.280;17.806;2023-04-24T06:34:25;12.15;;;5.00;;
35667;SDS011;22158;59.280;17.806;2023-04-24T06:36:50;9.75;;;4.50;;
35667;SDS011;22158;59.280;17.806;2023-04-24T06:39:16;10.10;;;5.13;;
35667;SDS011;22158;59.280;17.806;2023-04-24T06:41:42;10.75;;;4.93;;
35667;SDS011;22158;59.280;17.806;2023-04-24T06:44:07;14.70;;;5.05;;
35667;SDS011;22158;59.280;17.806;2023-04-24T06:46:33;9.68;;;4.43;;
35667;SDS011;22158;59.280;17.806;2023-04-24T06:48:59;10.48;;;4.68;;
35667;SDS011;22158;59.280;17.806;2023-04-24T06:51:26;11.63;;;5.38;;
35667;SDS011;22158;59.280;17.806;2023-04-24T06:53:52;8.52;;;4.22;;
35667;SDS011;22158;59.280;17.806;2023-04-24T06:56:19;10.07;;;4.90;;
35667;SDS011;22158;59.280;17.806;2023-04-24T06:58:45;9.68;;;3.70;;
35667;SDS011;22158;59.280;17.806;2023-04-24T07:01:11;9.25;;;4.38;;
35667;SDS011;22158;59.280;17.806;2023-04-24T07:03:37;11.40;;;3.58;;
35667;SDS011;22158;59.280;17.806;2023-04-24T07:06:02;7.65;;;3.88;;
35667;SDS011;22158;59.280;17.806;2023-04-24T07:08:30;7.78;;;3.75;;
35667;SDS011;22158;59.280;17.806;2023-04-24T07:10:55;8.23;;;3.33;;
35667;SDS011;22158;59.280;17.806;2023-04-24T07:13:22;9.68;;;3.70;;
35667;SDS011;22158;59.280;17.806;2023-04-24T07:15:48;7.10;;;3.67;;
35667;SDS011;22158;59.280;17.806;2023-04-24T07:18:15;5.97;;;3.45;;
35667;SDS011;22158;59.280;17.806;2023-04-24T07:20:41;9.48;;;4.03;;
35667;SDS011;22158;59.280;17.806;2023-04-24T07:23:07;7.35;;;3.55;;
35667;SDS011;22158;59.280;17.806;2023-04-24T07:25:33;9.07;;;4.10;;
35667;SDS011;22158;59.280;17.806;2023-04-24T07:27:59;12.05;;;3.92;;
35667;SDS011;22158;59.280;17.806;2023-04-24T07:30:25;10.25;;;4.15;;
35667;SDS011;22158;59.280;17.806;2023-04-24T07:32:50;6.30;;;3.40;;
35667;SDS011;22158;59.280;17.806;2023-04-24T07:35:16;9.88;;;3.90;;
35667;SDS011;22158;59.280;17.806;2023-04-24T07:37:42;6.68;;;3.47;;
35667;SDS011;22158;59.280;17.806;2023-04-24T07:40:11;7.63;;;3.78;;
35667;SDS011;22158;59.280;17.806;2023-04-24T07:42:37;6.65;;;4.32;;
35667;SDS011;22158;59.280;17.806;2023-04-24T07:45:03;6.10;;;3.63;;
35667;SDS011;22158;59.280;17.806;2023-04-24T07:47:29;7.80;;;3.22;;
35667;SDS011;22158;59.280;17.806;2023-04-24T07:49:55;8.48;;;4.38;;
35667;SDS011;22158;59.280;17.806;2023-04-24T07:52:21;6.43;;;4.03;;
35667;SDS011;22158;59.280;17.806;2023-04-24T07:54:46;8.02;;;3.22;;
35667;SDS011;22158;59.280;17.806;2023-04-24T07:57:12;8.30;;;3.90;;
35667;SDS011;22158;59.280;17.806;2023-04-24T07:59:38;6.65;;;3.65;;
35667;SDS011;22158;59.280;17.806;2023-04-24T08:02:04;7.88;;;3.47;;
35667;SDS011;22158;59.280;17.806;2023-04-24T08:04:31;6.70;;;3.70;;
35667;SDS011;22158;59.280;17.806;2023-04-24T08:06:56;7.97;;;3.33;;
35667;SDS011;22158;59.280;17.806;2023-04-24T08:09:22;6.32;;;3.03;;
35667;SDS011;22158;59.280;17.806;2023-04-24T08:11:48;7.15;;;2.92;;
35667;SDS011;22158;59.280;17.806;2023-04-24T08:14:13;7.18;;;4.13;;
35667;SDS011;22158;59.280;17.806;2023-04-24T08:16:40;6.50;;;3.35;;
35667;SDS011;22158;59.280;17.806;2023-04-24T08:19:06;7.95;;;4.18;;
35667;SDS011;22158;59.280;17.806;2023-04-24T08:21:31;5.10;;;3.28;;
35667;SDS011;22158;59.280;17.806;2023-04-24T08:23:57;7.68;;;3.55;;
35667;SDS011;22158;59.280;17.806;2023-04-24T08:26:23;5.25;;;2.72;;
35667;SDS011;22158;59.280;17.806;2023-04-24T08:28:49;5.45;;;3.17;;
35667;SDS011;22158;59.280;17.806;2023-04-24T08:31:14;5.95;;;3.05;;
35667;SDS011;22158;59.280;17.806;2023-04-24T08:33:40;7.03;;;2.78;;
35667;SDS011;22158;59.280;17.806;2023-04-24T08:36:06;7.20;;;4.57;;
35667;SDS011;22158;59.280;17.806;2023-04-24T08:38:32;5.07;;;3.10;;
35667;SDS011;22158;59.280;17.806;2023-04-24T08:40:59;8.50;;;4.32;;
35667;SDS011;22158;59.280;17.806;2023-04-24T08:43:25;8.00;;;3.97;;
35667;SDS011;22158;59.280;17.806;2023-04-24T08:45:51;7.43;;;2.95;;
35667;SDS011;22158;59.280;17.806;2023-04-24T08:48:18;6.43;;;3.70;;
35667;SDS011;22158;59.280;17.806;2023-04-24T08:50:44;4.97;;;3.45;;
35667;SDS011;22158;59.280;17.806;2023-04-24T08:53:10;7.25;;;3.28;;
35667;SDS011;22158;59.280;17.806;2023-04-24T08:55:37;13.57;;;3.85;;
35667;SDS011;22158;59.280;17.806;2023-04-24T08:58:03;7.70;;;3.25;;
35667;SDS011;22158;59.280;17.806;2023-04-24T09:00:29;4.82;;;2.83;;
35667;SDS011;22158;59.280;17.806;2023-04-24T09:02:55;5.35;;;3.33;;
35667;SDS011;22158;59.280;17.806;2023-04-24T09:05:21;5.97;;;3.15;;
35667;SDS011;22158;59.280;17.806;2023-04-24T09:07:49;5.15;;;2.65;;
35667;SDS011;22158;59.280;17.806;2023-04-24T09:10:22;4.18;;;2.72;;
35667;SDS011;22158;59.280;17.806;2023-04-24T09:12:50;5.07;;;2.65;;
35667;SDS011;22158;59.280;17.806;2023-04-24T09:15:18;4.80;;;2.60;;
35667;SDS011;22158;59.280;17.806;2023-04-24T09:17:45;6.18;;;2.50;;
35667;SDS011;22158;59.280;17.806;2023-04-24T09:20:11;10.57;;;2.58;;
35667;SDS011;22158;59.280;17.806;2023-04-24T09:22:37;4.47;;;2.90;;
35667;SDS011;22158;59.280;17.806;2023-04-24T09:25:03;8.27;;;3.47;;
35667;SDS011;22158;59.280;17.806;2023-04-24T09:27:34;4.82;;;3.30;;
35667;SDS011;22158;59.280;17.806;2023-04-24T09:30:00;4.60;;;3.78;;
35667;SDS011;22158;59.280;17.806;2023-04-24T09:32:26;5.13;;;2.78;;
35667;SDS011;22158;59.280;17.806;2023-04-24T09:35:13;5.68;;;3.08;;
35667;SDS011;22158;59.280;17.806;2023-04-24T09:37:41;6.25;;;3.53;;
35667;SDS011;22158;59.280;17.806;2023-04-24T09:42:43;8.00;;;4.57;;
35667;SDS011;22158;59.280;17.806;2023-04-24T09:45:10;5.15;;;3.53;;
35667;SDS011;22158;59.280;17.806;2023-04-24T09:47:40;8.95;;;5.47;;
35667;SDS011;22158;59.280;17.806;2023-04-24T09:50:12;7.63;;;3.65;;
35667;SDS011;22158;59.280;17.806;2023-04-24T09:52:46;6.32;;;3.58;;
35667;SDS011;22158;59.280;17.806;2023-04-24T09:55:21;6.65;;;3.47;;
35667;SDS011;22158;59.280;17.806;2023-04-24T09:57:48;5.05;;;3.35;;
35667;SDS011;22158;59.280;17.806;2023-04-24T10:00:21;5.28;;;3.33;;
35667;SDS011;22158;59.280;17.806;2023-04-24T10:03:09;6.65;;;3.70;;
35667;SDS011;22158;59.280;17.806;2023-04-24T10:05:35;6.32;;;3.38;;
35667;SDS011;22158;59.280;17.806;2023-04-24T10:08:05;12.65;;;3.65;;
35667;SDS011;22158;59.280;17.806;2023-04-24T10:10:34;7.03;;;3.83;;
35667;SDS011;22158;59.280;17.806;2023-04-24T10:13:05;4.93;;;2.92;;
35667;SDS011;22158;59.280;17.806;2023-04-24T10:15:32;6.72;;;4.07;;
35667;SDS011;22158;59.280;17.806;2023-04-24T10:17:58;5.38;;;3.20;;
35667;SDS011;22158;59.280;17.806;2023-04-24T10:20:25;6.78;;;3.60;;
35667;SDS011;22158;59.280;17.806;2023-04-24T10:22:54;10.38;;;3.88;;
35667;SDS011;22158;59.280;17.806;2023-04-24T10:25:22;4.78;;;2.92;;
35667;SDS011;22158;59.280;17.806;2023-04-24T10:27:50;7.90;;;3.20;;
35667;SDS011;22158;59.280;17.806;2023-04-24T10:30:17;6.65;;;3.78;;
35667;SDS011;22158;59.280;17.806;2023-04-24T10:32:43;7.03;;;3.05;;
35667;SDS011;22158;59.280;17.806;2023-04-24T10:35:10;7.72;;;3.55;;
35667;SDS011;22158;59.280;17.806;2023-04-24T10:37:39;4.70;;;3.50;;
35667;SDS011;22158;59.280;17.806;2023-04-24T10:40:11;6.65;;;3.40;;
35667;SDS011;22158;59.280;17.806;2023-04-24T10:42:42;5.30;;;3.65;;
35667;SDS011;22158;59.280;17.806;2023-04-24T10:45:18;6.47;;;4.22;;
35667;SDS011;22158;59.280;17.806;2023-04-24T10:47:53;6.55;;;3.22;;
35667;SDS011;22158;59.280;17.806;2023-04-24T10:50:23;6.25;;;3.50;;
35667;SDS011;22158;59.280;17.806;2023-04-24T10:52:50;6.43;;;4.15;;
35667;SDS011;22158;59.280;17.806;2023-04-24T10:55:38;8.65;;;4.50;;
35667;SDS011;22158;59.280;17.806;2023-04-24T10:58:12;7.32;;;4.38;;
35667;SDS011;22158;59.280;17.806;2023-04-24T11:00:38;5.80;;;3.58;;
35667;SDS011;22158;59.280;17.806;2023-04-24T11:03:06;6.50;;;4.05;;
35667;SDS011;22158;59.280;17.806;2023-04-24T11:05:50;6.32;;;3.63;;
35667;SDS011;22158;59.280;17.806;2023-04-24T11:08:26;9.55;;;6.82;;
35667;SDS011;22158;59.280;17.806;2023-04-24T11:10:57;6.38;;;3.85;;
35667;SDS011;22158;59.280;17.806;2023-04-24T11:13:27;8.23;;;4.37;;
35667;SDS011;22158;59.280;17.806;2023-04-24T11:21:42;4.18;;;3.45;;
35667;SDS011;22158;59.280;17.806;2023-04-24T11:24:24;7.55;;;3.38;;
35667;SDS011;22158;59.280;17.806;2023-04-24T11:26:53;6.03;;;3.17;;
35667;SDS011;22158;59.280;17.806;2023-04-24T11:29:44;8.68;;;3.53;;
35667;SDS011;22158;59.280;17.806;2023-04-24T11:34:52;6.13;;;3.95;;
35667;SDS011;22158;59.280;17.806;2023-04-24T11:37:19;6.38;;;3.50;;
35667;SDS011;22158;59.280;17.806;2023-04-24T11:39:45;6.10;;;3.13;;
35667;SDS011;22158;59.280;17.806;2023-04-24T11:42:12;12.20;;;3.40;;
35667;SDS011;22158;59.280;17.806;2023-04-24T11:44:41;4.65;;;2.97;;
35667;SDS011;22158;59.280;17.806;2023-04-24T11:47:08;5.57;;;3.28;;
35667;SDS011;22158;59.280;17.806;2023-04-24T11:49:34;6.07;;;3.30;;
35667;SDS011;22158;59.280;17.806;2023-04-24T11:52:02;4.38;;;2.85;;
35667;SDS011;22158;59.280;17.806;2023-04-24T11:54:29;7.35;;;3.10;;
35667;SDS011;22158;59.280;17.806;2023-04-24T11:56:55;7.78;;;3.30;;
35667;SDS011;22158;59.280;17.806;2023-04-24T11:59:21;10.63;;;4.10;;
35667;SDS011;22158;59.280;17.806;2023-04-24T12:01:47;4.70;;;2.55;;
35667;SDS011;22158;59.280;17.806;2023-04-24T12:04:14;5.25;;;2.80;;
35667;SDS011;22158;59.280;17.806;2023-04-24T12:09:39;8.27;;;2.90;;
35667;SDS011;22158;59.280;17.806;2023-04-24T12:12:23;6.45;;;2.60;;
35667;SDS011;22158;59.280;17.806;2023-04-24T12:14:56;5.72;;;2.92;;
35667;SDS011;22158;59.280;17.806;2023-04-24T12:17:27;4.68;;;2.80;;
35667;SDS011;22158;59.280;17.806;2023-04-24T12:19:57;8.32;;;2.85;;
35667;SDS011;22158;59.280;17.806;2023-04-24T12:22:27;5.50;;;3.00;;
35667;SDS011;22158;59.280;17.806;2023-04-24T12:25:09;5.75;;;3.33;;
35667;SDS011;22158;59.280;17.806;2023-04-24T12:27:35;9.52;;;3.70;;
35667;SDS011;22158;59.280;17.806;2023-04-24T12:30:02;7.65;;;3.63;;
35667;SDS011;22158;59.280;17.806;2023-04-24T12:32:29;5.85;;;3.70;;
35667;SDS011;22158;59.280;17.806;2023-04-24T12:34:55;6.85;;;3.55;;
35667;SDS011;22158;59.280;17.806;2023-04-24T12:37:24;7.43;;;3.53;;
35667;SDS011;22158;59.280;17.806;2023-04-24T12:40:03;7.80;;;3.08;;
35667;SDS011;22158;59.280;17.806;2023-04-24T12:42:31;7.40;;;3.22;;
35667;SDS011;22158;59.280;17.806;2023-04-24T12:45:06;8.25;;;3.65;;
35667;SDS011;22158;59.280;17.806;2023-04-24T12:47:33;10.52;;;4.10;;
35667;SDS011;22158;59.280;17.806;2023-04-24T12:50:00;6.63;;;3.88;;
35667;SDS011;22158;59.280;17.806;2023-04-24T12:52:27;6.22;;;3.85;;
35667;SDS011;22158;59.280;17.806;2023-04-24T12:54:54;5.10;;;3.25;;
35667;SDS011;22158;59.280;17.806;2023-04-24T12:57:21;6.43;;;3.60;;
35667;SDS011;22158;59.280;17.806;2023-04-24T12:59:47;6.93;;;3.85;;
35667;SDS011;22158;59.280;17.806;2023-04-24T13:02:13;8.63;;;3.95;;
35667;SDS011;22158;59.280;17.806;2023-04-24T13:04:42;9.98;;;4.15;;
35667;SDS011;22158;59.280;17.806;2023-04-24T13:07:11;10.30;;;3.70;;
35667;SDS011;22158;59.280;17.806;2023-04-24T13:09:41;8.90;;;3.80;;
35667;SDS011;22158;59.280;17.806;2023-04-24T13:12:07;11.85;;;3.97;;
35667;SDS011;22158;59.280;17.806;2023-04-24T13:14:34;9.23;;;4.63;;
35667;SDS011;22158;59.280;17.806;2023-04-24T13:17:00;7.90;;;4.68;;
35667;SDS011;22158;59.280;17.806;2023-04-24T13:19:25;7.80;;;4.13;;
35667;SDS011;22158;59.280;17.806;2023-04-24T13:21:52;9.27;;;4.32;;
35667;SDS011;22158;59.280;17.806;2023-04-24T13:24:20;9.38;;;4.13;;
35667;SDS011;22158;59.280;17.806;2023-04-24T13:26:45;8.85;;;3.97;;
35667;SDS011;22158;59.280;17.806;2023-04-24T13:29:11;6.93;;;3.60;;
35667;SDS011;22158;59.280;17.806;2023-04-24T13:31:36;10.13;;;5.05;;
35667;SDS011;22158;59.280;17.806;2023-04-24T13:34:02;7.80;;;3.92;;
35667;SDS011;22158;59.280;17.806;2023-04-24T13:36:28;11.73;;;4.78;;
35667;SDS011;22158;59.280;17.806;2023-04-24T13:38:55;8.57;;;3.83;;
35667;SDS011;22158;59.280;17.806;2023-04-24T13:41:20;8.00;;;3.30;;
35667;SDS011;22158;59.280;17.806;2023-04-24T13:43:46;7.35;;;3.92;;
35667;SDS011;22158;59.280;17.806;2023-04-24T13:46:12;6.43;;;3.42;;
35667;SDS011;22158;59.280;17.806;2023-04-24T13:48:37;8.55;;;4.40;;
35667;SDS011;22158;59.280;17.806;2023-04-24T13:51:03;6.80;;;3.88;;
35667;SDS011;22158;59.280;17.806;2023-04-24T13:53:29;7.90;;;3.88;;
35667;SDS011;22158;59.280;17.806;2023-04-24T13:55:54;9.55;;;4.40;;
35667;SDS011;22158;59.280;17.806;2023-04-24T13:58:20;11.13;;;4.22;;
35667;SDS011;22158;59.280;17.806;2023-04-24T14:00:46;9.48;;;4.07;;
35667;SDS011;22158;59.280;17.806;2023-04-24T14:03:11;7.80;;;3.78;;
35667;SDS011;22158;59.280;17.806;2023-04-24T14:05:37;6.20;;;4.05;;
35667;SDS011;22158;59.280;17.806;2023-04-24T14:08:03;7.18;;;4.57;;
35667;SDS011;22158;59.280;17.806;2023-04-24T14:10:28;9.98;;;3.92;;
35667;SDS011;22158;59.280;17.806;2023-04-24T14:12:54;6.38;;;4.40;;
35667;SDS011;22158;59.280;17.806;2023-04-24T14:15:20;10.85;;;4.00;;
35667;SDS011;22158;59.280;17.806;2023-04-24T14:17:46;9.23;;;4.28;;
35667;SDS011;22158;59.280;17.806;2023-04-24T14:20:12;9.88;;;4.32;;
35667;SDS011;22158;59.280;17.806;2023-04-24T14:22:38;5.97;;;4.07;;
35667;SDS011;22158;59.280;17.806;2023-04-24T14:25:04;8.27;;;3.72;;
35667;SDS011;22158;59.280;17.806;2023-04-24T14:27:31;9.10;;;4.78;;
35667;SDS011;22158;59.280;17.806;2023-04-24T14:29:59;5.72;;;3.67;;
35667;SDS011;22158;59.280;17.806;2023-04-24T14:32:25;5.32;;;3.40;;
35667;SDS011;22158;59.280;17.806;2023-04-24T14:34:50;8.63;;;4.20;;
35667;SDS011;22158;59.280;17.806;2023-04-24T14:37:16;6.15;;;3.63;;
35667;SDS011;22158;59.280;17.806;2023-04-24T14:39:41;5.90;;;3.28;;
35667;SDS011;22158;59.280;17.806;2023-04-24T14:42:07;10.40;;;4.15;;
35667;SDS011;22158;59.280;17.806;2023-04-24T14:44:33;10.73;;;4.07;;
35667;SDS011;22158;59.280;17.806;2023-04-24T14:46:58;8.00;;;3.50;;
35667;SDS011;22158;59.280;17.806;2023-04-24T14:49:25;7.28;;;3.83;;
35667;SDS011;22158;59.280;17.806;2023-04-24T14:51:51;6.28;;;3.17;;
35667;SDS011;22158;59.280;17.806;2023-04-24T14:54:16;7.22;;;3.72;;
35667;SDS011;22158;59.280;17.806;2023-04-24T14:56:42;7.68;;;3.88;;
35667;SDS011;22158;59.280;17.806;2023-04-24T14:59:09;6.07;;;3.67;;
35667;SDS011;22158;59.280;17.806;2023-04-24T15:01:35;7.85;;;4.40;;
35667;SDS011;22158;59.280;17.806;2023-04-24T15:04:00;9.27;;;4.07;;
35667;SDS011;22158;59.280;17.806;2023-04-24T15:06:26;8.45;;;3.97;;
35667;SDS011;22158;59.280;17.806;2023-04-24T15:08:52;10.15;;;4.70;;
35667;SDS011;22158;59.280;17.806;2023-04-24T15:11:18;9.35;;;4.82;;
35667;SDS011;22158;59.280;17.806;2023-04-24T15:13:43;7.85;;;4.30;;
35667;SDS011;22158;59.280;17.806;2023-04-24T15:16:11;8.23;;;4.65;;
35667;SDS011;22158;59.280;17.806;2023-04-24T15:18:37;9.57;;;4.57;;
35667;SDS011;22158;59.280;17.806;2023-04-24T15:21:03;6.00;;;3.90;;
35667;SDS011;22158;59.280;17.806;2023-04-24T15:23:28;8.98;;;3.95;;
35667;SDS011;22158;59.280;17.806;2023-04-24T15:25:54;7.82;;;4.00;;
35667;SDS011;22158;59.280;17.806;2023-04-24T15:28:20;6.22;;;3.85;;
35667;SDS011;22158;59.280;17.806;2023-04-24T15:30:46;7.60;;;3.70;;
35667;SDS011;22158;59.280;17.806;2023-04-24T15:33:12;6.85;;;4.35;;
35667;SDS011;22158;59.280;17.806;2023-04-24T15:35:38;9.30;;;5.10;;
35667;SDS011;22158;59.280;17.806;2023-04-24T15:38:05;7.63;;;3.55;;
35667;SDS011;22158;59.280;17.806;2023-04-24T15:40:30;5.15;;;3.40;;
35667;SDS011;22158;59.280;17.806;2023-04-24T15:42:56;5.88;;;3.20;;
35667;SDS011;22158;59.280;17.806;2023-04-24T15:45:22;11.68;;;3.55;;
35667;SDS011;22158;59.280;17.806;2023-04-24T15:47:47;9.35;;;4.30;;
35667;SDS011;22158;59.280;17.806;2023-04-24T15:50:14;8.65;;;4.68;;
35667;SDS011;22158;59.280;17.806;2023-04-24T15:52:41;10.73;;;3.70;;
35667;SDS011;22158;59.280;17.806;2023-04-24T15:55:07;9.38;;;3.53;;
35667;SDS011;22158;59.280;17.806;2023-04-24T15:57:33;6.60;;;3.60;;
35667;SDS011;22158;59.280;17.806;2023-04-24T15:59:59;9.45;;;4.18;;
35667;SDS011;22158;59.280;17.806;2023-04-24T16:02:25;7.28;;;3.47;;
35667;SDS011;22158;59.280;17.806;2023-04-24T16:04:50;10.65;;;3.72;;
35667;SDS011;22158;59.280;17.806;2023-04-24T16:07:17;11.82;;;3.78;;
35667;SDS011;22158;59.280;17.806;2023-04-24T16:09:42;6.20;;;3.38;;
35667;SDS011;22158;59.280;17.806;2023-04-24T16:12:10;8.80;;;3.90;;
35667;SDS011;22158;59.280;17.806;2023-04-24T16:14:36;8.85;;;3.75;;
35667;SDS011;22158;59.280;17.806;2023-04-24T16:17:02;6.82;;;4.15;;
35667;SDS011;22158;59.280;17.806;2023-04-24T16:19:28;4.70;;;3.42;;
35667;SDS011;22158;59.280;17.806;2023-04-24T16:21:53;6.72;;;3.80;;
35667;SDS011;22158;59.280;17.806;2023-04-24T16:24:23;7.07;;;4.13;;
35667;SDS011;22158;59.280;17.806;2023-04-24T16:26:49;12.82;;;3.83;;
35667;SDS011;22158;59.280;17.806;2023-04-24T16:29:15;11.20;;;5.03;;
35667;SDS011;22158;59.280;17.806;2023-04-24T16:31:41;7.43;;;3.33;;
35667;SDS011;22158;59.280;17.806;2023-04-24T16:34:07;7.20;;;3.17;;
35667;SDS011;22158;59.280;17.806;2023-04-24T16:36:33;7.30;;;4.00;;
35667;SDS011;22158;59.280;17.806;2023-04-24T16:38:59;7.68;;;3.38;;
35667;SDS011;22158;59.280;17.806;2023-04-24T16:41:26;6.18;;;3.20;;
35667;SDS011;22158;59.280;17.806;2023-04-24T16:43:51;6.57;;;3.58;;
35667;SDS011;22158;59.280;17.806;2023-04-24T16:46:19;4.97;;;3.58;;
35667;SDS011;22158;59.280;17.806;2023-04-24T16:48:44;8.65;;;3.28;;
35667;SDS011;22158;59.280;17.806;2023-04-24T16:51:10;9.95;;;3.97;;
35667;SDS011;22158;59.280;17.806;2023-04-24T16:53:36;6.65;;;3.88;;
35667;SDS011;22158;59.280;17.806;2023-04-24T16:56:02;6.93;;;3.67;;
35667;SDS011;22158;59.280;17.806;2023-04-24T16:58:28;10.52;;;3.97;;
35667;SDS011;22158;59.280;17.806;2023-04-24T17:00:53;6.30;;;3.47;;
35667;SDS011;22158;59.280;17.806;2023-04-24T17:03:19;7.28;;;3.92;;
35667;SDS011;22158;59.280;17.806;2023-04-24T17:05:44;5.72;;;3.75;;
35667;SDS011;22158;59.280;17.806;2023-04-24T17:08:10;7.28;;;4.35;;
35667;SDS011;22158;59.280;17.806;2023-04-24T17:10:36;5.82;;;3.75;;
35667;SDS011;22158;59.280;17.806;2023-04-24T17:13:01;10.40;;;4.90;;
35667;SDS011;22158;59.280;17.806;2023-04-24T17:15:27;7.13;;;4.45;;
35667;SDS011;22158;59.280;17.806;2023-04-24T17:17:52;8.75;;;4.93;;
35667;SDS011;22158;59.280;17.806;2023-04-24T17:20:18;25.65;;;6.97;;
35667;SDS011;22158;59.280;17.806;2023-04-24T17:22:44;12.48;;;3.83;;
35667;SDS011;22158;59.280;17.806;2023-04-24T17:25:10;9.75;;;3.50;;
35667;SDS011;22158;59.280;17.806;2023-04-24T17:27:35;10.63;;;4.47;;
35667;SDS011;22158;59.280;17.806;2023-04-24T17:30:01;6.00;;;3.72;;
35667;SDS011;22158;59.280;17.806;2023-04-24T17:32:27;7.82;;;4.40;;
35667;SDS011;22158;59.280;17.806;2023-04-24T17:34:52;7.07;;;3.95;;
35667;SDS011;22158;59.280;17.806;2023-04-24T17:37:18;6.00;;;3.65;;
35667;SDS011;22158;59.280;17.806;2023-04-24T17:39:47;9.65;;;4.75;;
35667;SDS011;22158;59.280;17.806;2023-04-24T17:42:13;5.65;;;3.92;;
35667;SDS011;22158;59.280;17.806;2023-04-24T17:44:39;9.02;;;4.15;;
35667;SDS011;22158;59.280;17.806;2023-04-24T17:47:04;9.55;;;4.22;;
35667;SDS011;22158;59.280;17.806;2023-04-24T17:49:30;5.18;;;3.63;;
35667;SDS011;22158;59.280;17.806;2023-04-24T17:51:56;9.73;;;4.15;;
35667;SDS011;22158;59.280;17.806;2023-04-24T17:54:22;11.15;;;4.80;;
35667;SDS011;22158;59.280;17.806;2023-04-24T17:56:47;14.98;;;5.07;;
35667;SDS011;22158;59.280;17.806;2023-04-24T17:59:13;5.88;;;4.03;;
35667;SDS011;22158;59.280;17.806;2023-04-24T18:01:40;7.63;;;4.63;;
35667;SDS011;22158;59.280;17.806;2023-04-24T18:04:06;12.43;;;5.50;;
35667;SDS011;22158;59.280;17.806;2023-04-24T18:06:32;9.85;;;4.25;;
35667;SDS011;22158;59.280;17.806;2023-04-24T18:08:57;11.65;;;4.97;;
35667;SDS011;22158;59.280;17.806;2023-04-24T18:11:23;11.95;;;5.30;;
35667;SDS011;22158;59.280;17.806;2023-04-24T18:13:48;11.57;;;5.93;;
35667;SDS011;22158;59.280;17.806;2023-04-24T18:16:14;7.28;;;4.55;;
35667;SDS011;22158;59.280;17.806;2023-04-24T18:18:40;8.50;;;5.30;;
35667;SDS011;22158;59.280;17.806;2023-04-24T18:21:05;10.02;;;4.68;;
35667;SDS011;22158;59.280;17.806;2023-04-24T18:23:31;8.23;;;4.47;;
35667;SDS011;22158;59.280;17.806;2023-04-24T18:25:59;6.68;;;4.55;;
35667;SDS011;22158;59.280;17.806;2023-04-24T18:28:25;12.65;;;4.50;;
35667;SDS011;22158;59.280;17.806;2023-04-24T18:30:50;9.68;;;5.10;;
35667;SDS011;22158;59.280;17.806;2023-04-24T18:33:16;11.38;;;5.30;;
35667;SDS011;22158;59.280;17.806;2023-04-24T18:35:42;8.02;;;5.35;;
35667;SDS011;22158;59.280;17.806;2023-04-24T18:38:08;7.70;;;4.35;;
35667;SDS011;22158;59.280;17.806;2023-04-24T18:40:34;9.02;;;4.43;;
35667;SDS011;22158;59.280;17.806;2023-04-24T18:42:59;6.85;;;4.70;;
35667;SDS011;22158;59.280;17.806;2023-04-24T18:45:25;8.75;;;5.35;;
35667;SDS011;22158;59.280;17.806;2023-04-24T18:47:51;8.77;;;4.30;;
35667;SDS011;22158;59.280;17.806;2023-04-24T18:50:16;10.48;;;4.72;;
35667;SDS011;22158;59.280;17.806;2023-04-24T18:52:43;9.00;;;4.90;;
35667;SDS011;22158;59.280;17.806;2023-04-24T18:55:09;11.02;;;4.25;;
35667;SDS011;22158;59.280;17.806;2023-04-24T18:57:34;8.20;;;4.50;;
35667;SDS011;22158;59.280;17.806;2023-04-24T19:00:00;10.50;;;4.90;;
35667;SDS011;22158;59.280;17.806;2023-04-24T19:02:26;12.15;;;4.57;;
35667;SDS011;22158;59.280;17.806;2023-04-24T19:04:51;7.70;;;3.80;;
35667;SDS011;22158;59.280;17.806;2023-04-24T19:07:17;8.13;;;4.53;;
35667;SDS011;22158;59.280;17.806;2023-04-24T19:09:43;9.32;;;4.82;;
35667;SDS011;22158;59.280;17.806;2023-04-24T19:12:09;10.48;;;5.13;;
35667;SDS011;22158;59.280;17.806;2023-04-24T19:14:35;8.88;;;4.47;;
35667;SDS011;22158;59.280;17.806;2023-04-24T19:17:00;6.65;;;4.28;;
35667;SDS011;22158;59.280;17.806;2023-04-24T19:19:26;7.20;;;4.53;;
35667;SDS011;22158;59.280;17.806;2023-04-24T19:21:53;6.05;;;3.90;;
35667;SDS011;22158;59.280;17.806;2023-04-24T19:24:18;10.25;;;4.20;;
35667;SDS011;22158;59.280;17.806;2023-04-24T19:26:45;7.40;;;3.80;;
35667;SDS011;22158;59.280;17.806;2023-04-24T19:29:11;10.23;;;5.00;;
35667;SDS011;22158;59.280;17.806;2023-04-24T19:31:37;11.32;;;5.15;;
35667;SDS011;22158;59.280;17.806;2023-04-24T19:34:03;9.35;;;5.07;;
35667;SDS011;22158;59.280;17.806;2023-04-24T19:36:28;7.70;;;4.35;;
35667;SDS011;22158;59.280;17.806;2023-04-24T19:38:56;7.90;;;4.25;;
35667;SDS011;22158;59.280;17.806;2023-04-24T19:41:21;6.32;;;4.57;;
35667;SDS011;22158;59.280;17.806;2023-04-24T19:43:47;14.15;;;4.50;;